sensor_id;sensor_type;location;lat;lon;timestamp;P1;durP1;ratioP1;P2;durP2;ratioP2
846;SDS011;410;48.954;9.474;2023-01-29T00:01:02;7.72;;;6.50;;
846;SDS011;410;48.954;9.474;2023-01-29T00:03:06;6.30;;;5.70;;
846;SDS011;410;48.954;9.474;2023-01-29T00:05:09;6.35;;;5.65;;
846;SDS011;410;48.954;9.474;2023-01-29T00:07:27;7.03;;;6.15;;
846;SDS011;410;48.954;9.474;2023-01-29T00:09:30;10.60;;;7.65;;
846;SDS011;410;48.954;9.474;2023-01-29T00:11:33;9.90;;;7.35;;
846;SDS011;410;48.954;9.474;2023-01-29T00:13:37;19.20;;;11.88;;
846;SDS011;410;48.954;9.474;2023-01-29T00:15:39;35.25;;;18.65;;
846;SDS011;410;48.954;9.474;2023-01-29T00:17:44;11.25;;;7.50;;
846;SDS011;410;48.954;9.474;2023-01-29T00:19:47;10.00;;;7.40;;
846;SDS011;410;48.954;9.474;2023-01-29T00:21:51;12.55;;;9.55;;
846;SDS011;410;48.954;9.474;2023-01-29T00:23:54;15.50;;;10.98;;
846;SDS011;410;48.954;9.474;2023-01-29T00:25:58;9.43;;;7.30;;
846;SDS011;410;48.954;9.474;2023-01-29T00:28:01;9.77;;;7.13;;
846;SDS011;410;48.954;9.474;2023-01-29T00:30:05;8.55;;;7.38;;
846;SDS011;410;48.954;9.474;2023-01-29T00:32:13;8.35;;;6.25;;
846;SDS011;410;48.954;9.474;2023-01-29T00:34:18;8.30;;;6.80;;
846;SDS011;410;48.954;9.474;2023-01-29T00:36:22;7.80;;;7.00;;
846;SDS011;410;48.954;9.474;2023-01-29T00:38:26;10.27;;;7.82;;
846;SDS011;410;48.954;9.474;2023-01-29T00:40:29;12.80;;;9.20;;
846;SDS011;410;48.954;9.474;2023-01-29T00:42:55;24.27;;;15.65;;
846;SDS011;410;48.954;9.474;2023-01-29T00:45:16;18.50;;;12.27;;
846;SDS011;410;48.954;9.474;2023-01-29T00:47:19;12.60;;;9.88;;
846;SDS011;410;48.954;9.474;2023-01-29T00:49:38;12.10;;;9.30;;
846;SDS011;410;48.954;9.474;2023-01-29T00:51:41;9.15;;;7.20;;
846;SDS011;410;48.954;9.474;2023-01-29T00:53:44;11.27;;;7.13;;
846;SDS011;410;48.954;9.474;2023-01-29T00:55:47;5.95;;;5.35;;
846;SDS011;410;48.954;9.474;2023-01-29T00:57:50;7.93;;;6.68;;
846;SDS011;410;48.954;9.474;2023-01-29T00:59:53;12.95;;;8.45;;
846;SDS011;410;48.954;9.474;2023-01-29T01:01:56;10.90;;;7.47;;
846;SDS011;410;48.954;9.474;2023-01-29T01:04:17;10.48;;;7.60;;
846;SDS011;410;48.954;9.474;2023-01-29T01:06:21;7.13;;;5.60;;
846;SDS011;410;48.954;9.474;2023-01-29T01:08:24;7.80;;;7.00;;
846;SDS011;410;48.954;9.474;2023-01-29T01:10:45;6.85;;;5.82;;
846;SDS011;410;48.954;9.474;2023-01-29T01:12:53;8.55;;;6.38;;
846;SDS011;410;48.954;9.474;2023-01-29T01:14:57;8.02;;;6.65;;
846;SDS011;410;48.954;9.474;2023-01-29T01:17:00;8.93;;;6.88;;
846;SDS011;410;48.954;9.474;2023-01-29T01:19:03;7.82;;;7.03;;
846;SDS011;410;48.954;9.474;2023-01-29T01:21:06;9.95;;;7.85;;
846;SDS011;410;48.954;9.474;2023-01-29T01:23:10;9.15;;;6.90;;
846;SDS011;410;48.954;9.474;2023-01-29T01:25:13;9.95;;;6.93;;
846;SDS011;410;48.954;9.474;2023-01-29T01:27:18;7.07;;;6.22;;
846;SDS011;410;48.954;9.474;2023-01-29T01:29:21;6.90;;;6.07;;
846;SDS011;410;48.954;9.474;2023-01-29T01:31:24;8.43;;;6.32;;
846;SDS011;410;48.954;9.474;2023-01-29T01:33:27;7.43;;;6.55;;
846;SDS011;410;48.954;9.474;2023-01-29T01:35:30;7.55;;;6.45;;
846;SDS011;410;48.954;9.474;2023-01-29T01:37:33;6.53;;;5.93;;
846;SDS011;410;48.954;9.474;2023-01-29T01:39:39;7.05;;;6.07;;
846;SDS011;410;48.954;9.474;2023-01-29T01:41:42;7.28;;;6.40;;
846;SDS011;410;48.954;9.474;2023-01-29T01:43:46;7.55;;;5.68;;
846;SDS011;410;48.954;9.474;2023-01-29T01:45:53;7.45;;;6.45;;
846;SDS011;410;48.954;9.474;2023-01-29T01:47:58;7.40;;;6.50;;
846;SDS011;410;48.954;9.474;2023-01-29T01:50:05;16.48;;;8.25;;
846;SDS011;410;48.954;9.474;2023-01-29T01:52:09;9.95;;;7.22;;
846;SDS011;410;48.954;9.474;2023-01-29T01:54:14;14.00;;;9.13;;
846;SDS011;410;48.954;9.474;2023-01-29T01:56:23;16.25;;;8.80;;
846;SDS011;410;48.954;9.474;2023-01-29T01:58:29;15.18;;;10.63;;
846;SDS011;410;48.954;9.474;2023-01-29T02:00:35;12.77;;;8.05;;
846;SDS011;410;48.954;9.474;2023-01-29T02:02:39;10.13;;;7.38;;
846;SDS011;410;48.954;9.474;2023-01-29T02:05:01;11.98;;;8.48;;
846;SDS011;410;48.954;9.474;2023-01-29T02:07:22;9.18;;;7.15;;
846;SDS011;410;48.954;9.474;2023-01-29T02:09:45;10.90;;;6.88;;
846;SDS011;410;48.954;9.474;2023-01-29T02:11:54;15.38;;;9.43;;
846;SDS011;410;48.954;9.474;2023-01-29T02:13:58;11.00;;;9.38;;
846;SDS011;410;48.954;9.474;2023-01-29T02:16:01;10.18;;;8.13;;
846;SDS011;410;48.954;9.474;2023-01-29T02:18:07;8.57;;;7.68;;
846;SDS011;410;48.954;9.474;2023-01-29T02:20:13;7.15;;;6.40;;
846;SDS011;410;48.954;9.474;2023-01-29T02:22:31;7.13;;;5.78;;
846;SDS011;410;48.954;9.474;2023-01-29T02:27:26;12.95;;;8.60;;
846;SDS011;410;48.954;9.474;2023-01-29T02:29:41;14.55;;;8.40;;
846;SDS011;410;48.954;9.474;2023-01-29T02:31:55;16.73;;;8.70;;
846;SDS011;410;48.954;9.474;2023-01-29T02:34:04;10.88;;;7.05;;
846;SDS011;410;48.954;9.474;2023-01-29T02:36:14;13.45;;;7.65;;
846;SDS011;410;48.954;9.474;2023-01-29T02:38:22;9.85;;;7.30;;
846;SDS011;410;48.954;9.474;2023-01-29T02:40:33;10.65;;;7.50;;
846;SDS011;410;48.954;9.474;2023-01-29T02:42:41;7.80;;;6.57;;
846;SDS011;410;48.954;9.474;2023-01-29T02:44:51;12.45;;;7.82;;
846;SDS011;410;48.954;9.474;2023-01-29T02:46:59;8.00;;;6.90;;
846;SDS011;410;48.954;9.474;2023-01-29T02:49:07;6.95;;;6.25;;
846;SDS011;410;48.954;9.474;2023-01-29T02:51:17;9.60;;;8.25;;
846;SDS011;410;48.954;9.474;2023-01-29T02:53:23;10.07;;;7.25;;
846;SDS011;410;48.954;9.474;2023-01-29T02:55:30;10.32;;;7.35;;
846;SDS011;410;48.954;9.474;2023-01-29T02:57:38;8.85;;;6.65;;
846;SDS011;410;48.954;9.474;2023-01-29T02:59:45;8.73;;;6.82;;
846;SDS011;410;48.954;9.474;2023-01-29T03:01:55;6.85;;;5.82;;
846;SDS011;410;48.954;9.474;2023-01-29T03:04:02;7.80;;;6.32;;
846;SDS011;410;48.954;9.474;2023-01-29T03:06:09;9.18;;;6.22;;
846;SDS011;410;48.954;9.474;2023-01-29T03:08:22;7.10;;;6.10;;
846;SDS011;410;48.954;9.474;2023-01-29T03:10:38;7.25;;;6.55;;
846;SDS011;410;48.954;9.474;2023-01-29T03:12:44;8.57;;;6.35;;
846;SDS011;410;48.954;9.474;2023-01-29T03:14:49;6.55;;;5.85;;
846;SDS011;410;48.954;9.474;2023-01-29T03:17:11;7.63;;;6.82;;
846;SDS011;410;48.954;9.474;2023-01-29T03:19:17;8.13;;;6.32;;
846;SDS011;410;48.954;9.474;2023-01-29T03:21:24;12.85;;;9.27;;
846;SDS011;410;48.954;9.474;2023-01-29T03:23:55;10.77;;;7.35;;
846;SDS011;410;48.954;9.474;2023-01-29T03:26:18;7.03;;;6.32;;
846;SDS011;410;48.954;9.474;2023-01-29T03:28:41;8.38;;;6.38;;
846;SDS011;410;48.954;9.474;2023-01-29T03:31:08;6.53;;;5.90;;
846;SDS011;410;48.954;9.474;2023-01-29T03:33:38;7.32;;;6.18;;
846;SDS011;410;48.954;9.474;2023-01-29T03:35:46;7.15;;;5.75;;
846;SDS011;410;48.954;9.474;2023-01-29T03:37:53;6.88;;;6.05;;
846;SDS011;410;48.954;9.474;2023-01-29T03:39:57;6.65;;;5.68;;
846;SDS011;410;48.954;9.474;2023-01-29T03:42:03;6.20;;;5.60;;
846;SDS011;410;48.954;9.474;2023-01-29T03:44:11;7.40;;;6.35;;
846;SDS011;410;48.954;9.474;2023-01-29T03:46:19;7.13;;;6.43;;
846;SDS011;410;48.954;9.474;2023-01-29T03:48:27;6.95;;;6.00;;
846;SDS011;410;48.954;9.474;2023-01-29T03:50:37;11.07;;;6.57;;
846;SDS011;410;48.954;9.474;2023-01-29T03:52:43;7.40;;;5.80;;
846;SDS011;410;48.954;9.474;2023-01-29T03:54:51;6.53;;;5.90;;
846;SDS011;410;48.954;9.474;2023-01-29T03:56:59;6.28;;;5.65;;
846;SDS011;410;48.954;9.474;2023-01-29T03:59:19;8.90;;;5.60;;
846;SDS011;410;48.954;9.474;2023-01-29T04:01:39;6.35;;;4.90;;
846;SDS011;410;48.954;9.474;2023-01-29T04:03:46;6.68;;;5.85;;
846;SDS011;410;48.954;9.474;2023-01-29T04:05:53;7.47;;;5.90;;
846;SDS011;410;48.954;9.474;2023-01-29T04:08:15;6.70;;;5.82;;
846;SDS011;410;48.954;9.474;2023-01-29T04:10:24;5.90;;;5.28;;
846;SDS011;410;48.954;9.474;2023-01-29T04:12:29;6.75;;;5.95;;
846;SDS011;410;48.954;9.474;2023-01-29T04:14:37;7.82;;;5.90;;
846;SDS011;410;48.954;9.474;2023-01-29T04:16:41;5.68;;;5.07;;
846;SDS011;410;48.954;9.474;2023-01-29T04:19:04;6.70;;;5.35;;
846;SDS011;410;48.954;9.474;2023-01-29T04:21:13;6.65;;;5.93;;
846;SDS011;410;48.954;9.474;2023-01-29T04:23:18;7.18;;;5.55;;
846;SDS011;410;48.954;9.474;2023-01-29T04:25:24;6.60;;;5.90;;
846;SDS011;410;48.954;9.474;2023-01-29T04:27:32;7.45;;;6.15;;
846;SDS011;410;48.954;9.474;2023-01-29T04:29:49;7.15;;;5.82;;
846;SDS011;410;48.954;9.474;2023-01-29T04:32:02;10.25;;;6.00;;
846;SDS011;410;48.954;9.474;2023-01-29T04:34:13;7.00;;;5.50;;
846;SDS011;410;48.954;9.474;2023-01-29T04:36:25;6.57;;;5.88;;
846;SDS011;410;48.954;9.474;2023-01-29T04:38:35;8.00;;;5.82;;
846;SDS011;410;48.954;9.474;2023-01-29T04:40:47;7.57;;;6.18;;
846;SDS011;410;48.954;9.474;2023-01-29T04:42:54;7.53;;;6.65;;
846;SDS011;410;48.954;9.474;2023-01-29T04:45:02;6.38;;;5.40;;
846;SDS011;410;48.954;9.474;2023-01-29T04:47:11;8.50;;;6.38;;
846;SDS011;410;48.954;9.474;2023-01-29T04:49:24;6.35;;;5.75;;
846;SDS011;410;48.954;9.474;2023-01-29T04:51:34;7.38;;;6.28;;
846;SDS011;410;48.954;9.474;2023-01-29T04:53:46;6.93;;;5.80;;
846;SDS011;410;48.954;9.474;2023-01-29T04:55:53;6.72;;;6.03;;
846;SDS011;410;48.954;9.474;2023-01-29T04:58:02;7.38;;;5.75;;
846;SDS011;410;48.954;9.474;2023-01-29T05:00:08;6.32;;;5.70;;
846;SDS011;410;48.954;9.474;2023-01-29T05:02:15;5.57;;;5.00;;
846;SDS011;410;48.954;9.474;2023-01-29T05:04:19;6.57;;;5.53;;
846;SDS011;410;48.954;9.474;2023-01-29T05:06:22;7.22;;;5.70;;
846;SDS011;410;48.954;9.474;2023-01-29T05:08:27;7.22;;;5.50;;
846;SDS011;410;48.954;9.474;2023-01-29T05:10:31;6.95;;;5.53;;
846;SDS011;410;48.954;9.474;2023-01-29T05:12:35;6.85;;;5.80;;
846;SDS011;410;48.954;9.474;2023-01-29T05:14:39;6.78;;;5.85;;
846;SDS011;410;48.954;9.474;2023-01-29T05:16:45;6.78;;;5.88;;
846;SDS011;410;48.954;9.474;2023-01-29T05:18:49;6.10;;;5.47;;
846;SDS011;410;48.954;9.474;2023-01-29T05:20:52;6.28;;;5.68;;
846;SDS011;410;48.954;9.474;2023-01-29T05:22:57;6.55;;;5.53;;
846;SDS011;410;48.954;9.474;2023-01-29T05:25:05;7.07;;;5.97;;
846;SDS011;410;48.954;9.474;2023-01-29T05:27:14;7.57;;;5.90;;
846;SDS011;410;48.954;9.474;2023-01-29T05:29:37;6.97;;;5.78;;
846;SDS011;410;48.954;9.474;2023-01-29T05:31:42;7.70;;;6.90;;
846;SDS011;410;48.954;9.474;2023-01-29T05:33:45;6.88;;;6.10;;
846;SDS011;410;48.954;9.474;2023-01-29T05:35:49;7.60;;;6.25;;
846;SDS011;410;48.954;9.474;2023-01-29T05:37:52;6.88;;;5.85;;
846;SDS011;410;48.954;9.474;2023-01-29T05:39:55;7.45;;;5.55;;
846;SDS011;410;48.954;9.474;2023-01-29T05:42:00;7.50;;;6.05;;
846;SDS011;410;48.954;9.474;2023-01-29T05:44:04;7.20;;;6.13;;
846;SDS011;410;48.954;9.474;2023-01-29T05:46:07;6.78;;;5.57;;
846;SDS011;410;48.954;9.474;2023-01-29T05:48:10;7.38;;;5.88;;
846;SDS011;410;48.954;9.474;2023-01-29T05:50:13;7.65;;;6.03;;
846;SDS011;410;48.954;9.474;2023-01-29T05:52:17;6.30;;;5.40;;
846;SDS011;410;48.954;9.474;2023-01-29T05:54:20;6.80;;;5.82;;
846;SDS011;410;48.954;9.474;2023-01-29T05:56:23;6.70;;;5.70;;
846;SDS011;410;48.954;9.474;2023-01-29T05:58:31;6.93;;;5.80;;
846;SDS011;410;48.954;9.474;2023-01-29T06:00:34;9.45;;;5.40;;
846;SDS011;410;48.954;9.474;2023-01-29T06:02:37;7.00;;;5.90;;
846;SDS011;410;48.954;9.474;2023-01-29T06:04:40;8.45;;;5.35;;
846;SDS011;410;48.954;9.474;2023-01-29T06:06:43;5.93;;;5.10;;
846;SDS011;410;48.954;9.474;2023-01-29T06:08:46;6.85;;;5.50;;
846;SDS011;410;48.954;9.474;2023-01-29T06:10:49;6.25;;;5.65;;
846;SDS011;410;48.954;9.474;2023-01-29T06:12:52;7.38;;;5.88;;
846;SDS011;410;48.954;9.474;2023-01-29T06:14:56;6.97;;;6.00;;
846;SDS011;410;48.954;9.474;2023-01-29T06:16:59;8.20;;;6.07;;
846;SDS011;410;48.954;9.474;2023-01-29T06:19:02;6.70;;;6.00;;
846;SDS011;410;48.954;9.474;2023-01-29T06:21:06;7.15;;;6.00;;
846;SDS011;410;48.954;9.474;2023-01-29T06:23:14;6.90;;;5.63;;
846;SDS011;410;48.954;9.474;2023-01-29T06:25:17;6.25;;;5.53;;
846;SDS011;410;48.954;9.474;2023-01-29T06:27:20;6.45;;;5.82;;
846;SDS011;410;48.954;9.474;2023-01-29T06:29:23;6.60;;;5.65;;
846;SDS011;410;48.954;9.474;2023-01-29T06:31:27;6.68;;;5.97;;
846;SDS011;410;48.954;9.474;2023-01-29T06:33:39;7.00;;;5.38;;
846;SDS011;410;48.954;9.474;2023-01-29T06:35:42;7.03;;;6.05;;
846;SDS011;410;48.954;9.474;2023-01-29T06:37:48;6.35;;;5.63;;
846;SDS011;410;48.954;9.474;2023-01-29T06:39:51;6.68;;;5.07;;
846;SDS011;410;48.954;9.474;2023-01-29T06:41:54;6.40;;;5.80;;
846;SDS011;410;48.954;9.474;2023-01-29T06:43:57;6.18;;;5.45;;
846;SDS011;410;48.954;9.474;2023-01-29T06:46:00;7.95;;;5.60;;
846;SDS011;410;48.954;9.474;2023-01-29T06:48:04;7.32;;;5.65;;
846;SDS011;410;48.954;9.474;2023-01-29T06:50:08;6.03;;;5.15;;
846;SDS011;410;48.954;9.474;2023-01-29T06:52:12;7.80;;;6.22;;
846;SDS011;410;48.954;9.474;2023-01-29T06:54:15;5.95;;;5.00;;
846;SDS011;410;48.954;9.474;2023-01-29T06:56:18;6.32;;;5.28;;
846;SDS011;410;48.954;9.474;2023-01-29T06:58:21;6.65;;;5.50;;
846;SDS011;410;48.954;9.474;2023-01-29T07:00:24;8.60;;;5.93;;
846;SDS011;410;48.954;9.474;2023-01-29T07:02:27;7.28;;;6.35;;
846;SDS011;410;48.954;9.474;2023-01-29T07:04:31;5.90;;;5.30;;
846;SDS011;410;48.954;9.474;2023-01-29T07:06:36;7.30;;;5.53;;
846;SDS011;410;48.954;9.474;2023-01-29T07:08:39;7.60;;;5.97;;
846;SDS011;410;48.954;9.474;2023-01-29T07:10:42;7.38;;;6.35;;
846;SDS011;410;48.954;9.474;2023-01-29T07:12:45;8.55;;;6.53;;
846;SDS011;410;48.954;9.474;2023-01-29T07:14:48;8.45;;;6.65;;
846;SDS011;410;48.954;9.474;2023-01-29T07:16:51;8.02;;;7.00;;
846;SDS011;410;48.954;9.474;2023-01-29T07:18:54;9.65;;;7.70;;
846;SDS011;410;48.954;9.474;2023-01-29T07:20:58;8.18;;;6.95;;
846;SDS011;410;48.954;9.474;2023-01-29T07:23:09;7.70;;;6.65;;
846;SDS011;410;48.954;9.474;2023-01-29T07:25:13;10.43;;;7.03;;
846;SDS011;410;48.954;9.474;2023-01-29T07:27:16;7.55;;;6.75;;
846;SDS011;410;48.954;9.474;2023-01-29T07:29:19;7.60;;;6.80;;
846;SDS011;410;48.954;9.474;2023-01-29T07:31:22;9.18;;;7.45;;
846;SDS011;410;48.954;9.474;2023-01-29T07:33:25;7.72;;;6.90;;
846;SDS011;410;48.954;9.474;2023-01-29T07:35:28;9.48;;;7.40;;
846;SDS011;410;48.954;9.474;2023-01-29T07:37:33;10.02;;;8.13;;
846;SDS011;410;48.954;9.474;2023-01-29T07:39:36;8.73;;;7.55;;
846;SDS011;410;48.954;9.474;2023-01-29T07:41:39;10.60;;;8.35;;
846;SDS011;410;48.954;9.474;2023-01-29T07:43:49;10.73;;;8.10;;
846;SDS011;410;48.954;9.474;2023-01-29T07:45:52;11.80;;;9.27;;
846;SDS011;410;48.954;9.474;2023-01-29T07:47:55;13.60;;;9.85;;
846;SDS011;410;48.954;9.474;2023-01-29T07:49:59;10.38;;;8.68;;
846;SDS011;410;48.954;9.474;2023-01-29T07:52:02;9.57;;;8.50;;
846;SDS011;410;48.954;9.474;2023-01-29T07:54:06;11.25;;;9.60;;
846;SDS011;410;48.954;9.474;2023-01-29T07:56:09;10.00;;;9.00;;
846;SDS011;410;48.954;9.474;2023-01-29T07:58:12;8.25;;;7.40;;
846;SDS011;410;48.954;9.474;2023-01-29T08:00:16;9.15;;;7.07;;
846;SDS011;410;48.954;9.474;2023-01-29T08:02:20;9.23;;;7.88;;
846;SDS011;410;48.954;9.474;2023-01-29T08:04:23;9.23;;;7.13;;
846;SDS011;410;48.954;9.474;2023-01-29T08:06:26;19.40;;;9.93;;
846;SDS011;410;48.954;9.474;2023-01-29T08:08:29;31.63;;;14.80;;
846;SDS011;410;48.954;9.474;2023-01-29T08:10:34;55.60;;;24.75;;
846;SDS011;410;48.954;9.474;2023-01-29T08:12:37;41.40;;;20.58;;
846;SDS011;410;48.954;9.474;2023-01-29T08:14:40;20.00;;;11.32;;
846;SDS011;410;48.954;9.474;2023-01-29T08:16:43;10.95;;;7.70;;
846;SDS011;410;48.954;9.474;2023-01-29T08:18:47;9.52;;;7.47;;
846;SDS011;410;48.954;9.474;2023-01-29T08:20:50;9.45;;;7.72;;
846;SDS011;410;48.954;9.474;2023-01-29T08:22:57;8.45;;;7.03;;
846;SDS011;410;48.954;9.474;2023-01-29T08:25:01;7.70;;;6.28;;
846;SDS011;410;48.954;9.474;2023-01-29T08:27:22;7.30;;;6.07;;
846;SDS011;410;48.954;9.474;2023-01-29T08:29:25;7.57;;;6.78;;
846;SDS011;410;48.954;9.474;2023-01-29T08:31:30;8.50;;;6.85;;
846;SDS011;410;48.954;9.474;2023-01-29T08:33:34;7.30;;;6.35;;
846;SDS011;410;48.954;9.474;2023-01-29T08:35:40;6.75;;;6.05;;
846;SDS011;410;48.954;9.474;2023-01-29T08:37:43;7.30;;;5.97;;
846;SDS011;410;48.954;9.474;2023-01-29T08:39:46;7.60;;;6.15;;
846;SDS011;410;48.954;9.474;2023-01-29T08:41:49;7.82;;;6.30;;
846;SDS011;410;48.954;9.474;2023-01-29T08:43:53;10.70;;;7.55;;
846;SDS011;410;48.954;9.474;2023-01-29T08:45:57;7.40;;;6.63;;
846;SDS011;410;48.954;9.474;2023-01-29T08:48:00;12.63;;;8.10;;
846;SDS011;410;48.954;9.474;2023-01-29T08:50:04;16.90;;;11.55;;
846;SDS011;410;48.954;9.474;2023-01-29T08:52:08;11.43;;;9.77;;
846;SDS011;410;48.954;9.474;2023-01-29T08:54:11;9.27;;;7.43;;
846;SDS011;410;48.954;9.474;2023-01-29T08:56:14;6.72;;;6.00;;
846;SDS011;410;48.954;9.474;2023-01-29T08:58:18;5.97;;;5.28;;
846;SDS011;410;48.954;9.474;2023-01-29T09:00:22;6.18;;;5.55;;
846;SDS011;410;48.954;9.474;2023-01-29T09:02:25;6.97;;;5.50;;
846;SDS011;410;48.954;9.474;2023-01-29T09:04:29;5.70;;;4.68;;
846;SDS011;410;48.954;9.474;2023-01-29T09:06:32;7.40;;;6.60;;
846;SDS011;410;48.954;9.474;2023-01-29T09:08:35;6.60;;;5.90;;
846;SDS011;410;48.954;9.474;2023-01-29T09:10:38;7.15;;;5.75;;
846;SDS011;410;48.954;9.474;2023-01-29T09:12:41;6.05;;;5.45;;
846;SDS011;410;48.954;9.474;2023-01-29T09:14:44;5.85;;;5.25;;
846;SDS011;410;48.954;9.474;2023-01-29T09:16:48;6.72;;;4.95;;
846;SDS011;410;48.954;9.474;2023-01-29T09:18:52;5.40;;;4.63;;
846;SDS011;410;48.954;9.474;2023-01-29T09:20:55;5.72;;;4.80;;
846;SDS011;410;48.954;9.474;2023-01-29T09:23:02;7.03;;;5.28;;
846;SDS011;410;48.954;9.474;2023-01-29T09:25:06;5.63;;;5.10;;
846;SDS011;410;48.954;9.474;2023-01-29T09:27:10;6.40;;;5.40;;
846;SDS011;410;48.954;9.474;2023-01-29T09:29:13;5.15;;;4.65;;
846;SDS011;410;48.954;9.474;2023-01-29T09:31:16;5.05;;;4.53;;
846;SDS011;410;48.954;9.474;2023-01-29T09:33:20;5.93;;;5.05;;
846;SDS011;410;48.954;9.474;2023-01-29T09:35:25;8.73;;;6.57;;
846;SDS011;410;48.954;9.474;2023-01-29T09:37:28;7.65;;;6.63;;
846;SDS011;410;48.954;9.474;2023-01-29T09:39:31;6.63;;;5.75;;
846;SDS011;410;48.954;9.474;2023-01-29T09:41:39;6.57;;;5.90;;
846;SDS011;410;48.954;9.474;2023-01-29T09:43:50;6.57;;;5.40;;
846;SDS011;410;48.954;9.474;2023-01-29T09:45:57;5.85;;;5.20;;
846;SDS011;410;48.954;9.474;2023-01-29T09:48:03;7.65;;;5.65;;
846;SDS011;410;48.954;9.474;2023-01-29T09:50:12;8.93;;;5.75;;
846;SDS011;410;48.954;9.474;2023-01-29T09:52:21;7.15;;;6.05;;
846;SDS011;410;48.954;9.474;2023-01-29T09:54:26;6.22;;;5.63;;
846;SDS011;410;48.954;9.474;2023-01-29T09:56:31;7.80;;;6.18;;
846;SDS011;410;48.954;9.474;2023-01-29T09:58:35;7.18;;;6.45;;
846;SDS011;410;48.954;9.474;2023-01-29T10:00:39;7.22;;;5.70;;
846;SDS011;410;48.954;9.474;2023-01-29T10:02:51;5.72;;;5.05;;
846;SDS011;410;48.954;9.474;2023-01-29T10:05:02;9.40;;;5.60;;
846;SDS011;410;48.954;9.474;2023-01-29T10:07:35;6.50;;;5.80;;
846;SDS011;410;48.954;9.474;2023-01-29T10:09:52;6.63;;;5.93;;
846;SDS011;410;48.954;9.474;2023-01-29T10:12:10;5.93;;;5.30;;
846;SDS011;410;48.954;9.474;2023-01-29T10:14:23;6.30;;;5.65;;
846;SDS011;410;48.954;9.474;2023-01-29T10:16:36;6.75;;;5.78;;
846;SDS011;410;48.954;9.474;2023-01-29T10:21:33;7.95;;;6.53;;
846;SDS011;410;48.954;9.474;2023-01-29T10:23:46;7.45;;;6.45;;
846;SDS011;410;48.954;9.474;2023-01-29T10:25:51;10.05;;;7.28;;
846;SDS011;410;48.954;9.474;2023-01-29T10:27:56;9.73;;;7.10;;
846;SDS011;410;48.954;9.474;2023-01-29T10:30:00;6.88;;;6.10;;
846;SDS011;410;48.954;9.474;2023-01-29T10:32:05;8.38;;;6.97;;
846;SDS011;410;48.954;9.474;2023-01-29T10:34:09;9.60;;;7.82;;
846;SDS011;410;48.954;9.474;2023-01-29T10:36:15;8.10;;;7.10;;
846;SDS011;410;48.954;9.474;2023-01-29T10:38:23;8.18;;;6.55;;
846;SDS011;410;48.954;9.474;2023-01-29T10:40:35;7.55;;;6.75;;
846;SDS011;410;48.954;9.474;2023-01-29T10:42:42;7.47;;;6.60;;
846;SDS011;410;48.954;9.474;2023-01-29T10:44:50;8.30;;;7.03;;
846;SDS011;410;48.954;9.474;2023-01-29T10:47:26;8.52;;;6.40;;
846;SDS011;410;48.954;9.474;2023-01-29T10:49:46;8.18;;;7.15;;
846;SDS011;410;48.954;9.474;2023-01-29T10:52:05;8.50;;;7.60;;
846;SDS011;410;48.954;9.474;2023-01-29T10:54:16;9.00;;;7.28;;
846;SDS011;410;48.954;9.474;2023-01-29T10:56:38;14.02;;;7.20;;
846;SDS011;410;48.954;9.474;2023-01-29T10:58:50;8.95;;;7.40;;
846;SDS011;410;48.954;9.474;2023-01-29T11:00:55;8.82;;;7.43;;
846;SDS011;410;48.954;9.474;2023-01-29T11:02:58;10.68;;;7.85;;
846;SDS011;410;48.954;9.474;2023-01-29T11:05:28;8.95;;;7.43;;
846;SDS011;410;48.954;9.474;2023-01-29T11:07:34;8.60;;;6.95;;
846;SDS011;410;48.954;9.474;2023-01-29T11:09:38;8.90;;;7.95;;
846;SDS011;410;48.954;9.474;2023-01-29T11:11:46;9.20;;;8.25;;
846;SDS011;410;48.954;9.474;2023-01-29T11:13:52;9.30;;;8.00;;
846;SDS011;410;48.954;9.474;2023-01-29T11:15:57;8.63;;;7.40;;
846;SDS011;410;48.954;9.474;2023-01-29T11:18:01;8.40;;;7.43;;
846;SDS011;410;48.954;9.474;2023-01-29T11:20:24;10.48;;;8.80;;
846;SDS011;410;48.954;9.474;2023-01-29T11:22:29;8.82;;;7.65;;
846;SDS011;410;48.954;9.474;2023-01-29T11:24:32;9.43;;;8.43;;
846;SDS011;410;48.954;9.474;2023-01-29T11:26:36;8.60;;;7.68;;
846;SDS011;410;48.954;9.474;2023-01-29T11:28:43;8.05;;;7.20;;
846;SDS011;410;48.954;9.474;2023-01-29T11:30:47;9.15;;;7.75;;
846;SDS011;410;48.954;9.474;2023-01-29T11:33:06;8.95;;;7.88;;
846;SDS011;410;48.954;9.474;2023-01-29T11:35:19;9.18;;;8.02;;
846;SDS011;410;48.954;9.474;2023-01-29T11:37:23;7.32;;;6.60;;
846;SDS011;410;48.954;9.474;2023-01-29T11:39:34;8.32;;;7.43;;
846;SDS011;410;48.954;9.474;2023-01-29T11:41:48;8.80;;;7.07;;
846;SDS011;410;48.954;9.474;2023-01-29T11:43:54;8.70;;;7.35;;
846;SDS011;410;48.954;9.474;2023-01-29T11:46:00;8.85;;;7.95;;
846;SDS011;410;48.954;9.474;2023-01-29T11:48:10;9.65;;;8.70;;
846;SDS011;410;48.954;9.474;2023-01-29T11:50:18;9.43;;;7.85;;
846;SDS011;410;48.954;9.474;2023-01-29T11:52:23;8.45;;;7.32;;
846;SDS011;410;48.954;9.474;2023-01-29T11:54:29;10.65;;;8.10;;
846;SDS011;410;48.954;9.474;2023-01-29T11:56:38;10.75;;;8.75;;
846;SDS011;410;48.954;9.474;2023-01-29T11:58:42;12.65;;;8.68;;
846;SDS011;410;48.954;9.474;2023-01-29T12:00:47;15.40;;;9.00;;
846;SDS011;410;48.954;9.474;2023-01-29T12:02:52;11.07;;;9.50;;
846;SDS011;410;48.954;9.474;2023-01-29T12:04:57;12.48;;;9.52;;
846;SDS011;410;48.954;9.474;2023-01-29T12:07:01;10.80;;;9.30;;
846;SDS011;410;48.954;9.474;2023-01-29T12:09:08;12.70;;;10.40;;
846;SDS011;410;48.954;9.474;2023-01-29T12:11:12;16.60;;;12.77;;
846;SDS011;410;48.954;9.474;2023-01-29T12:13:23;10.45;;;9.25;;
846;SDS011;410;48.954;9.474;2023-01-29T12:15:28;15.50;;;13.43;;
846;SDS011;410;48.954;9.474;2023-01-29T12:17:34;13.38;;;11.10;;
846;SDS011;410;48.954;9.474;2023-01-29T12:19:39;14.25;;;10.75;;
846;SDS011;410;48.954;9.474;2023-01-29T12:21:46;15.02;;;11.15;;
846;SDS011;410;48.954;9.474;2023-01-29T12:23:54;10.85;;;9.13;;
846;SDS011;410;48.954;9.474;2023-01-29T12:26:00;16.75;;;13.95;;
846;SDS011;410;48.954;9.474;2023-01-29T12:28:09;17.55;;;13.55;;
846;SDS011;410;48.954;9.474;2023-01-29T12:30:21;18.35;;;16.45;;
846;SDS011;410;48.954;9.474;2023-01-29T12:32:28;12.40;;;11.02;;
846;SDS011;410;48.954;9.474;2023-01-29T12:34:40;16.52;;;12.95;;
846;SDS011;410;48.954;9.474;2023-01-29T12:36:47;15.07;;;10.65;;
846;SDS011;410;48.954;9.474;2023-01-29T12:38:54;13.52;;;10.77;;
846;SDS011;410;48.954;9.474;2023-01-29T12:40:59;12.10;;;10.80;;
846;SDS011;410;48.954;9.474;2023-01-29T12:43:10;14.63;;;11.50;;
846;SDS011;410;48.954;9.474;2023-01-29T12:45:16;18.48;;;12.65;;
846;SDS011;410;48.954;9.474;2023-01-29T12:47:21;15.32;;;11.93;;
846;SDS011;410;48.954;9.474;2023-01-29T12:49:29;20.40;;;15.13;;
846;SDS011;410;48.954;9.474;2023-01-29T12:51:35;17.40;;;11.65;;
846;SDS011;410;48.954;9.474;2023-01-29T12:53:42;18.33;;;13.30;;
846;SDS011;410;48.954;9.474;2023-01-29T12:55:47;14.38;;;11.95;;
846;SDS011;410;48.954;9.474;2023-01-29T12:57:56;13.82;;;10.90;;
846;SDS011;410;48.954;9.474;2023-01-29T13:00:02;12.95;;;10.90;;
846;SDS011;410;48.954;9.474;2023-01-29T13:02:11;14.60;;;12.30;;
846;SDS011;410;48.954;9.474;2023-01-29T13:04:23;15.20;;;12.75;;
846;SDS011;410;48.954;9.474;2023-01-29T13:06:34;14.55;;;11.23;;
846;SDS011;410;48.954;9.474;2023-01-29T13:08:42;13.20;;;11.27;;
846;SDS011;410;48.954;9.474;2023-01-29T13:10:50;13.05;;;10.90;;
846;SDS011;410;48.954;9.474;2023-01-29T13:12:56;13.38;;;10.65;;
846;SDS011;410;48.954;9.474;2023-01-29T13:15:03;15.13;;;11.73;;
846;SDS011;410;48.954;9.474;2023-01-29T13:17:09;12.77;;;10.40;;
846;SDS011;410;48.954;9.474;2023-01-29T13:19:19;14.30;;;11.82;;
846;SDS011;410;48.954;9.474;2023-01-29T13:21:28;12.43;;;10.98;;
846;SDS011;410;48.954;9.474;2023-01-29T13:23:33;15.18;;;11.43;;
846;SDS011;410;48.954;9.474;2023-01-29T13:25:38;15.00;;;11.85;;
846;SDS011;410;48.954;9.474;2023-01-29T13:27:42;13.50;;;11.73;;
846;SDS011;410;48.954;9.474;2023-01-29T13:29:46;13.45;;;11.18;;
846;SDS011;410;48.954;9.474;2023-01-29T13:31:49;14.25;;;11.90;;
846;SDS011;410;48.954;9.474;2023-01-29T13:33:57;13.00;;;11.20;;
846;SDS011;410;48.954;9.474;2023-01-29T13:36:02;13.90;;;11.23;;